sensor_id;sensor_type;location;lat;lon;timestamp;P1;durP1;ratioP1;P2;durP2;ratioP2
40907;SDS011;51055;59.436;24.778;2023-02-15T00:01:32;8.98;;;3.30;;
40907;SDS011;51055;59.436;24.778;2023-02-15T00:04:00;8.02;;;3.30;;
40907;SDS011;51055;59.436;24.778;2023-02-15T00:06:27;7.88;;;3.63;;
40907;SDS011;51055;59.436;24.778;2023-02-15T00:08:54;7.18;;;3.20;;
40907;SDS011;51055;59.436;24.778;2023-02-15T00:11:22;8.40;;;3.55;;
40907;SDS011;51055;59.436;24.778;2023-02-15T00:14:08;6.60;;;3.13;;
40907;SDS011;51055;59.436;24.778;2023-02-15T00:16:35;8.60;;;3.85;;
40907;SDS011;51055;59.436;24.778;2023-02-15T00:19:02;10.38;;;3.75;;
40907;SDS011;51055;59.436;24.778;2023-02-15T00:21:30;9.60;;;3.72;;
40907;SDS011;51055;59.436;24.778;2023-02-15T00:23:59;9.10;;;3.67;;
40907;SDS011;51055;59.436;24.778;2023-02-15T00:26:26;10.95;;;3.15;;
40907;SDS011;51055;59.436;24.778;2023-02-15T00:28:55;6.97;;;2.60;;
40907;SDS011;51055;59.436;24.778;2023-02-15T00:31:22;6.80;;;3.38;;
40907;SDS011;51055;59.436;24.778;2023-02-15T00:33:50;8.57;;;3.47;;
40907;SDS011;51055;59.436;24.778;2023-02-15T00:36:17;9.43;;;3.53;;
40907;SDS011;51055;59.436;24.778;2023-02-15T00:38:45;6.85;;;3.50;;
40907;SDS011;51055;59.436;24.778;2023-02-15T00:41:12;8.60;;;3.80;;
40907;SDS011;51055;59.436;24.778;2023-02-15T00:43:40;8.57;;;3.40;;
40907;SDS011;51055;59.436;24.778;2023-02-15T00:46:07;7.70;;;3.53;;
40907;SDS011;51055;59.436;24.778;2023-02-15T00:48:35;9.18;;;3.35;;
40907;SDS011;51055;59.436;24.778;2023-02-15T00:51:02;8.38;;;3.40;;
40907;SDS011;51055;59.436;24.778;2023-02-15T00:53:29;8.27;;;3.40;;
40907;SDS011;51055;59.436;24.778;2023-02-15T00:55:58;11.23;;;3.38;;
40907;SDS011;51055;59.436;24.778;2023-02-15T00:58:26;10.07;;;3.75;;
40907;SDS011;51055;59.436;24.778;2023-02-15T01:00:54;6.57;;;3.30;;
40907;SDS011;51055;59.436;24.778;2023-02-15T01:03:21;9.30;;;3.40;;
40907;SDS011;51055;59.436;24.778;2023-02-15T01:05:49;7.28;;;3.13;;
40907;SDS011;51055;59.436;24.778;2023-02-15T01:08:17;11.13;;;3.58;;
40907;SDS011;51055;59.436;24.778;2023-02-15T01:10:44;8.73;;;3.53;;
40907;SDS011;51055;59.436;24.778;2023-02-15T01:13:14;8.43;;;3.78;;
40907;SDS011;51055;59.436;24.778;2023-02-15T01:15:43;8.93;;;3.50;;
40907;SDS011;51055;59.436;24.778;2023-02-15T01:18:11;8.10;;;2.90;;
40907;SDS011;51055;59.436;24.778;2023-02-15T01:20:39;7.50;;;3.33;;
40907;SDS011;51055;59.436;24.778;2023-02-15T01:25:34;6.75;;;3.10;;
40907;SDS011;51055;59.436;24.778;2023-02-15T01:28:05;9.07;;;3.65;;
40907;SDS011;51055;59.436;24.778;2023-02-15T01:30:32;7.03;;;3.40;;
40907;SDS011;51055;59.436;24.778;2023-02-15T01:33:00;8.80;;;3.58;;
40907;SDS011;51055;59.436;24.778;2023-02-15T01:35:29;6.50;;;3.20;;
40907;SDS011;51055;59.436;24.778;2023-02-15T01:37:57;8.35;;;3.83;;
40907;SDS011;51055;59.436;24.778;2023-02-15T01:40:24;8.93;;;3.53;;
40907;SDS011;51055;59.436;24.778;2023-02-15T01:42:52;10.73;;;4.35;;
40907;SDS011;51055;59.436;24.778;2023-02-15T01:48:00;8.00;;;3.85;;
40907;SDS011;51055;59.436;24.778;2023-02-15T01:50:40;7.07;;;3.70;;
40907;SDS011;51055;59.436;24.778;2023-02-15T01:53:21;10.80;;;3.80;;
40907;SDS011;51055;59.436;24.778;2023-02-15T01:55:55;8.32;;;3.53;;
40907;SDS011;51055;59.436;24.778;2023-02-15T01:58:24;12.13;;;4.22;;
40907;SDS011;51055;59.436;24.778;2023-02-15T02:00:52;8.88;;;3.90;;
40907;SDS011;51055;59.436;24.778;2023-02-15T02:03:22;9.57;;;4.20;;
40907;SDS011;51055;59.436;24.778;2023-02-15T02:05:54;9.98;;;4.20;;
40907;SDS011;51055;59.436;24.778;2023-02-15T02:08:21;9.45;;;3.65;;
40907;SDS011;51055;59.436;24.778;2023-02-15T02:10:49;8.80;;;4.10;;
40907;SDS011;51055;59.436;24.778;2023-02-15T02:13:16;10.38;;;4.45;;
40907;SDS011;51055;59.436;24.778;2023-02-15T02:15:55;9.90;;;4.40;;
40907;SDS011;51055;59.436;24.778;2023-02-15T02:18:48;12.45;;;4.53;;
40907;SDS011;51055;59.436;24.778;2023-02-15T02:21:34;9.52;;;4.22;;
40907;SDS011;51055;59.436;24.778;2023-02-15T02:36:42;9.30;;;5.22;;
40907;SDS011;51055;59.436;24.778;2023-02-15T02:39:28;8.32;;;4.82;;
40907;SDS011;51055;59.436;24.778;2023-02-15T02:44:27;9.32;;;5.28;;
40907;SDS011;51055;59.436;24.778;2023-02-15T02:46:59;9.52;;;5.35;;
40907;SDS011;51055;59.436;24.778;2023-02-15T02:49:36;14.27;;;5.47;;
40907;SDS011;51055;59.436;24.778;2023-02-15T02:52:31;8.65;;;5.55;;
40907;SDS011;51055;59.436;24.778;2023-02-15T02:54:54;9.70;;;5.57;;
40907;SDS011;51055;59.436;24.778;2023-02-15T02:57:22;8.93;;;5.67;;
40907;SDS011;51055;59.436;24.778;2023-02-15T02:59:50;8.95;;;5.10;;
40907;SDS011;51055;59.436;24.778;2023-02-15T03:02:22;10.50;;;5.65;;
40907;SDS011;51055;59.436;24.778;2023-02-15T03:04:53;10.82;;;5.63;;
40907;SDS011;51055;59.436;24.778;2023-02-15T03:07:25;10.35;;;5.72;;
40907;SDS011;51055;59.436;24.778;2023-02-15T03:09:55;11.18;;;6.15;;
40907;SDS011;51055;59.436;24.778;2023-02-15T03:12:32;10.85;;;6.00;;
40907;SDS011;51055;59.436;24.778;2023-02-15T03:15:04;9.82;;;5.75;;
40907;SDS011;51055;59.436;24.778;2023-02-15T03:17:32;10.73;;;6.10;;
40907;SDS011;51055;59.436;24.778;2023-02-15T03:20:05;11.60;;;5.90;;
40907;SDS011;51055;59.436;24.778;2023-02-15T03:22:36;10.93;;;6.18;;
40907;SDS011;51055;59.436;24.778;2023-02-15T03:27:33;9.57;;;5.90;;
40907;SDS011;51055;59.436;24.778;2023-02-15T03:30:03;13.27;;;6.57;;
40907;SDS011;51055;59.436;24.778;2023-02-15T03:32:31;7.93;;;4.30;;
40907;SDS011;51055;59.436;24.778;2023-02-15T03:34:59;9.27;;;5.63;;
40907;SDS011;51055;59.436;24.778;2023-02-15T03:37:32;10.80;;;6.25;;
40907;SDS011;51055;59.436;24.778;2023-02-15T03:40:03;10.30;;;5.82;;
40907;SDS011;51055;59.436;24.778;2023-02-15T03:42:55;10.77;;;5.88;;
40907;SDS011;51055;59.436;24.778;2023-02-15T03:45:25;10.20;;;6.00;;
40907;SDS011;51055;59.436;24.778;2023-02-15T03:47:54;13.88;;;6.60;;
40907;SDS011;51055;59.436;24.778;2023-02-15T03:50:27;10.90;;;6.38;;
40907;SDS011;51055;59.436;24.778;2023-02-15T03:53:15;11.63;;;6.75;;
40907;SDS011;51055;59.436;24.778;2023-02-15T03:58:10;12.13;;;6.65;;
40907;SDS011;51055;59.436;24.778;2023-02-15T04:01:39;11.25;;;6.35;;
40907;SDS011;51055;59.436;24.778;2023-02-15T04:04:07;11.45;;;6.15;;
40907;SDS011;51055;59.436;24.778;2023-02-15T04:06:36;10.98;;;6.32;;
40907;SDS011;51055;59.436;24.778;2023-02-15T04:09:03;10.38;;;6.22;;
40907;SDS011;51055;59.436;24.778;2023-02-15T04:11:49;13.05;;;6.10;;
40907;SDS011;51055;59.436;24.778;2023-02-15T04:14:17;12.95;;;6.18;;
40907;SDS011;51055;59.436;24.778;2023-02-15T04:17:05;10.60;;;6.70;;
40907;SDS011;51055;59.436;24.778;2023-02-15T04:19:33;14.88;;;7.97;;
40907;SDS011;51055;59.436;24.778;2023-02-15T04:22:18;14.20;;;7.50;;
40907;SDS011;51055;59.436;24.778;2023-02-15T04:25:04;11.30;;;6.22;;
40907;SDS011;51055;59.436;24.778;2023-02-15T04:27:42;10.52;;;6.10;;
40907;SDS011;51055;59.436;24.778;2023-02-15T04:30:10;12.43;;;7.20;;
40907;SDS011;51055;59.436;24.778;2023-02-15T04:32:37;12.32;;;6.65;;
40907;SDS011;51055;59.436;24.778;2023-02-15T04:35:05;15.30;;;8.07;;
40907;SDS011;51055;59.436;24.778;2023-02-15T04:37:33;10.65;;;5.93;;
40907;SDS011;51055;59.436;24.778;2023-02-15T04:40:01;10.10;;;4.93;;
40907;SDS011;51055;59.436;24.778;2023-02-15T04:42:29;7.60;;;4.40;;
40907;SDS011;51055;59.436;24.778;2023-02-15T04:44:56;10.30;;;5.40;;
40907;SDS011;51055;59.436;24.778;2023-02-15T04:47:24;9.32;;;5.00;;
40907;SDS011;51055;59.436;24.778;2023-02-15T04:49:51;9.05;;;5.07;;
40907;SDS011;51055;59.436;24.778;2023-02-15T04:52:18;8.20;;;4.90;;
40907;SDS011;51055;59.436;24.778;2023-02-15T04:54:46;10.50;;;5.00;;
40907;SDS011;51055;59.436;24.778;2023-02-15T04:57:13;9.93;;;5.20;;
40907;SDS011;51055;59.436;24.778;2023-02-15T04:59:40;9.77;;;5.55;;
40907;SDS011;51055;59.436;24.778;2023-02-15T05:02:08;11.35;;;5.70;;
40907;SDS011;51055;59.436;24.778;2023-02-15T05:04:36;11.02;;;6.10;;
40907;SDS011;51055;59.436;24.778;2023-02-15T05:07:03;13.45;;;6.80;;
40907;SDS011;51055;59.436;24.778;2023-02-15T05:09:31;11.32;;;6.38;;
40907;SDS011;51055;59.436;24.778;2023-02-15T05:11:58;13.50;;;8.75;;
40907;SDS011;51055;59.436;24.778;2023-02-15T05:14:26;13.93;;;9.05;;
40907;SDS011;51055;59.436;24.778;2023-02-15T05:16:53;14.93;;;9.80;;
40907;SDS011;51055;59.436;24.778;2023-02-15T05:19:21;14.15;;;9.23;;
40907;SDS011;51055;59.436;24.778;2023-02-15T05:21:51;12.23;;;7.38;;
40907;SDS011;51055;59.436;24.778;2023-02-15T05:24:19;14.23;;;7.75;;
40907;SDS011;51055;59.436;24.778;2023-02-15T05:27:04;13.57;;;7.15;;
40907;SDS011;51055;59.436;24.778;2023-02-15T05:29:50;12.52;;;6.38;;
40907;SDS011;51055;59.436;24.778;2023-02-15T05:32:18;14.70;;;7.45;;
40907;SDS011;51055;59.436;24.778;2023-02-15T05:34:45;11.93;;;6.80;;
40907;SDS011;51055;59.436;24.778;2023-02-15T05:37:12;13.80;;;6.18;;
40907;SDS011;51055;59.436;24.778;2023-02-15T05:39:40;11.73;;;5.97;;
40907;SDS011;51055;59.436;24.778;2023-02-15T05:42:07;11.15;;;6.00;;
40907;SDS011;51055;59.436;24.778;2023-02-15T05:44:34;12.25;;;6.95;;
40907;SDS011;51055;59.436;24.778;2023-02-15T05:47:02;10.77;;;6.22;;
40907;SDS011;51055;59.436;24.778;2023-02-15T05:49:30;14.05;;;6.53;;
40907;SDS011;51055;59.436;24.778;2023-02-15T05:51:57;11.50;;;6.50;;
40907;SDS011;51055;59.436;24.778;2023-02-15T05:54:24;12.63;;;6.72;;
40907;SDS011;51055;59.436;24.778;2023-02-15T05:56:51;13.15;;;6.80;;
40907;SDS011;51055;59.436;24.778;2023-02-15T05:59:19;11.75;;;6.88;;
40907;SDS011;51055;59.436;24.778;2023-02-15T06:01:46;12.23;;;6.43;;
40907;SDS011;51055;59.436;24.778;2023-02-15T06:04:14;11.48;;;6.72;;
40907;SDS011;51055;59.436;24.778;2023-02-15T06:06:41;11.48;;;6.50;;
40907;SDS011;51055;59.436;24.778;2023-02-15T06:09:09;10.77;;;6.45;;
40907;SDS011;51055;59.436;24.778;2023-02-15T06:11:37;10.07;;;6.30;;
40907;SDS011;51055;59.436;24.778;2023-02-15T06:14:04;12.63;;;6.43;;
40907;SDS011;51055;59.436;24.778;2023-02-15T06:16:31;12.75;;;7.28;;
40907;SDS011;51055;59.436;24.778;2023-02-15T06:18:59;15.00;;;6.80;;
40907;SDS011;51055;59.436;24.778;2023-02-15T06:21:28;11.10;;;6.22;;
40907;SDS011;51055;59.436;24.778;2023-02-15T06:23:56;10.83;;;5.17;;
40907;SDS011;51055;59.436;24.778;2023-02-15T06:26:24;13.35;;;6.63;;
40907;SDS011;51055;59.436;24.778;2023-02-15T06:28:51;13.57;;;6.85;;
40907;SDS011;51055;59.436;24.778;2023-02-15T06:31:19;15.13;;;6.97;;
40907;SDS011;51055;59.436;24.778;2023-02-15T06:33:47;11.20;;;6.22;;
40907;SDS011;51055;59.436;24.778;2023-02-15T06:36:14;9.95;;;6.78;;
40907;SDS011;51055;59.436;24.778;2023-02-15T06:38:42;11.20;;;6.13;;
40907;SDS011;51055;59.436;24.778;2023-02-15T06:41:10;7.30;;;4.90;;
40907;SDS011;51055;59.436;24.778;2023-02-15T06:43:37;10.32;;;5.78;;
40907;SDS011;51055;59.436;24.778;2023-02-15T06:46:06;10.65;;;6.03;;
40907;SDS011;51055;59.436;24.778;2023-02-15T06:48:34;9.52;;;5.22;;
40907;SDS011;51055;59.436;24.778;2023-02-15T06:51:01;8.35;;;5.38;;
40907;SDS011;51055;59.436;24.778;2023-02-15T06:53:29;8.52;;;4.95;;
40907;SDS011;51055;59.436;24.778;2023-02-15T06:56:03;12.52;;;5.32;;
40907;SDS011;51055;59.436;24.778;2023-02-15T06:58:33;9.38;;;4.95;;
40907;SDS011;51055;59.436;24.778;2023-02-15T07:01:00;11.63;;;5.60;;
40907;SDS011;51055;59.436;24.778;2023-02-15T07:03:28;9.35;;;4.50;;
40907;SDS011;51055;59.436;24.778;2023-02-15T07:05:56;10.18;;;4.82;;
40907;SDS011;51055;59.436;24.778;2023-02-15T07:08:29;10.30;;;5.10;;
40907;SDS011;51055;59.436;24.778;2023-02-15T07:10:56;7.03;;;3.97;;
40907;SDS011;51055;59.436;24.778;2023-02-15T07:13:46;10.40;;;4.85;;
40907;SDS011;51055;59.436;24.778;2023-02-15T07:16:14;8.43;;;4.35;;
40907;SDS011;51055;59.436;24.778;2023-02-15T07:18:41;9.20;;;4.72;;
40907;SDS011;51055;59.436;24.778;2023-02-15T07:21:09;9.70;;;4.90;;
40907;SDS011;51055;59.436;24.778;2023-02-15T07:23:36;11.50;;;5.45;;
40907;SDS011;51055;59.436;24.778;2023-02-15T07:26:04;10.63;;;4.93;;
40907;SDS011;51055;59.436;24.778;2023-02-15T07:28:32;10.07;;;5.07;;
40907;SDS011;51055;59.436;24.778;2023-02-15T07:31:01;10.73;;;5.53;;
40907;SDS011;51055;59.436;24.778;2023-02-15T07:33:32;9.18;;;4.43;;
40907;SDS011;51055;59.436;24.778;2023-02-15T07:36:01;14.05;;;6.60;;
40907;SDS011;51055;59.436;24.778;2023-02-15T07:41:02;10.85;;;6.43;;
40907;SDS011;51055;59.436;24.778;2023-02-15T07:43:32;11.18;;;6.28;;
40907;SDS011;51055;59.436;24.778;2023-02-15T07:46:00;8.85;;;5.68;;
40907;SDS011;51055;59.436;24.778;2023-02-15T07:48:28;12.93;;;6.07;;
40907;SDS011;51055;59.436;24.778;2023-02-15T07:50:59;11.52;;;7.30;;
40907;SDS011;51055;59.436;24.778;2023-02-15T07:53:26;8.95;;;5.90;;
40907;SDS011;51055;59.436;24.778;2023-02-15T07:55:54;9.73;;;5.68;;
40907;SDS011;51055;59.436;24.778;2023-02-15T07:58:21;15.45;;;7.30;;
40907;SDS011;51055;59.436;24.778;2023-02-15T08:01:09;10.60;;;6.28;;
40907;SDS011;51055;59.436;24.778;2023-02-15T08:03:36;8.95;;;4.82;;
40907;SDS011;51055;59.436;24.778;2023-02-15T08:06:03;9.52;;;5.32;;
40907;SDS011;51055;59.436;24.778;2023-02-15T08:08:32;8.70;;;4.57;;
40907;SDS011;51055;59.436;24.778;2023-02-15T08:13:46;8.50;;;4.47;;
40907;SDS011;51055;59.436;24.778;2023-02-15T08:16:23;9.63;;;6.00;;
40907;SDS011;51055;59.436;24.778;2023-02-15T08:18:51;10.60;;;5.45;;
40907;SDS011;51055;59.436;24.778;2023-02-15T08:21:19;9.18;;;5.32;;
40907;SDS011;51055;59.436;24.778;2023-02-15T08:23:49;11.02;;;6.45;;
40907;SDS011;51055;59.436;24.778;2023-02-15T08:26:16;10.18;;;5.18;;
40907;SDS011;51055;59.436;24.778;2023-02-15T08:28:44;10.27;;;5.82;;
40907;SDS011;51055;59.436;24.778;2023-02-15T08:31:13;11.00;;;6.60;;
40907;SDS011;51055;59.436;24.778;2023-02-15T08:33:41;10.65;;;5.75;;
40907;SDS011;51055;59.436;24.778;2023-02-15T08:36:10;10.02;;;5.75;;
40907;SDS011;51055;59.436;24.778;2023-02-15T08:38:38;8.60;;;5.10;;
40907;SDS011;51055;59.436;24.778;2023-02-15T08:41:18;7.75;;;4.90;;
40907;SDS011;51055;59.436;24.778;2023-02-15T08:43:47;7.20;;;4.65;;
40907;SDS011;51055;59.436;24.778;2023-02-15T08:46:15;7.38;;;4.53;;
40907;SDS011;51055;59.436;24.778;2023-02-15T08:48:43;6.13;;;3.67;;
40907;SDS011;51055;59.436;24.778;2023-02-15T08:51:15;9.55;;;5.30;;
40907;SDS011;51055;59.436;24.778;2023-02-15T08:53:44;12.57;;;5.47;;
40907;SDS011;51055;59.436;24.778;2023-02-15T08:58:39;10.35;;;4.97;;
40907;SDS011;51055;59.436;24.778;2023-02-15T09:01:10;12.75;;;6.07;;
40907;SDS011;51055;59.436;24.778;2023-02-15T09:03:38;9.40;;;6.18;;
40907;SDS011;51055;59.436;24.778;2023-02-15T09:06:05;10.77;;;6.30;;
40907;SDS011;51055;59.436;24.778;2023-02-15T09:08:33;12.15;;;6.40;;
40907;SDS011;51055;59.436;24.778;2023-02-15T09:11:04;9.63;;;6.13;;
40907;SDS011;51055;59.436;24.778;2023-02-15T09:13:32;9.18;;;5.65;;
40907;SDS011;51055;59.436;24.778;2023-02-15T09:16:00;11.93;;;5.68;;
40907;SDS011;51055;59.436;24.778;2023-02-15T09:18:28;10.10;;;5.90;;
40907;SDS011;51055;59.436;24.778;2023-02-15T09:20:56;10.95;;;6.53;;
40907;SDS011;51055;59.436;24.778;2023-02-15T09:23:23;9.60;;;5.80;;
40907;SDS011;51055;59.436;24.778;2023-02-15T09:25:53;10.98;;;5.85;;
40907;SDS011;51055;59.436;24.778;2023-02-15T09:28:20;9.27;;;5.57;;
40907;SDS011;51055;59.436;24.778;2023-02-15T09:30:48;11.43;;;6.25;;
40907;SDS011;51055;59.436;24.778;2023-02-15T09:33:15;11.95;;;5.72;;
40907;SDS011;51055;59.436;24.778;2023-02-15T09:35:43;9.88;;;6.03;;
40907;SDS011;51055;59.436;24.778;2023-02-15T09:38:10;10.55;;;5.63;;
40907;SDS011;51055;59.436;24.778;2023-02-15T09:40:39;7.93;;;4.73;;
40907;SDS011;51055;59.436;24.778;2023-02-15T09:43:14;13.00;;;6.95;;
40907;SDS011;51055;59.436;24.778;2023-02-15T09:45:58;10.65;;;6.97;;
40907;SDS011;51055;59.436;24.778;2023-02-15T10:06:38;13.57;;;8.77;;
40907;SDS011;51055;59.436;24.778;2023-02-15T10:19:38;17.08;;;9.75;;
40907;SDS011;51055;59.436;24.778;2023-02-15T10:22:11;18.38;;;9.48;;
40907;SDS011;51055;59.436;24.778;2023-02-15T10:27:29;14.63;;;8.90;;
40907;SDS011;51055;59.436;24.778;2023-02-15T10:30:11;14.20;;;8.75;;
40907;SDS011;51055;59.436;24.778;2023-02-15T10:32:41;16.30;;;8.85;;
40907;SDS011;51055;59.436;24.778;2023-02-15T10:37:58;12.48;;;6.95;;
40907;SDS011;51055;59.436;24.778;2023-02-15T10:43:20;11.35;;;6.57;;
40907;SDS011;51055;59.436;24.778;2023-02-15T10:46:11;15.40;;;8.35;;
40907;SDS011;51055;59.436;24.778;2023-02-15T10:51:20;13.25;;;7.95;;
40907;SDS011;51055;59.436;24.778;2023-02-15T11:02:10;13.40;;;7.72;;
40907;SDS011;51055;59.436;24.778;2023-02-15T11:04:41;15.50;;;8.13;;
40907;SDS011;51055;59.436;24.778;2023-02-15T11:07:14;14.48;;;8.43;;
40907;SDS011;51055;59.436;24.778;2023-02-15T11:09:47;17.45;;;9.02;;
40907;SDS011;51055;59.436;24.778;2023-02-15T11:12:17;17.38;;;9.27;;
40907;SDS011;51055;59.436;24.778;2023-02-15T11:14:50;18.65;;;9.40;;
40907;SDS011;51055;59.436;24.778;2023-02-15T11:17:22;14.45;;;7.75;;
40907;SDS011;51055;59.436;24.778;2023-02-15T11:19:58;11.60;;;6.28;;
40907;SDS011;51055;59.436;24.778;2023-02-15T11:22:29;12.30;;;6.25;;
40907;SDS011;51055;59.436;24.778;2023-02-15T11:24:57;13.77;;;7.13;;
40907;SDS011;51055;59.436;24.778;2023-02-15T11:27:27;12.97;;;6.47;;
40907;SDS011;51055;59.436;24.778;2023-02-15T11:32:33;13.23;;;5.95;;
40907;SDS011;51055;59.436;24.778;2023-02-15T11:42:44;9.63;;;5.20;;
40907;SDS011;51055;59.436;24.778;2023-02-15T11:45:28;11.07;;;6.22;;
40907;SDS011;51055;59.436;24.778;2023-02-15T11:47:56;13.88;;;6.18;;
40907;SDS011;51055;59.436;24.778;2023-02-15T11:50:24;10.23;;;5.97;;
40907;SDS011;51055;59.436;24.778;2023-02-15T11:52:52;10.93;;;6.50;;
40907;SDS011;51055;59.436;24.778;2023-02-15T11:55:21;9.85;;;4.65;;
40907;SDS011;51055;59.436;24.778;2023-02-15T12:00:39;10.75;;;6.05;;
40907;SDS011;51055;59.436;24.778;2023-02-15T12:03:13;11.57;;;6.30;;
40907;SDS011;51055;59.436;24.778;2023-02-15T12:05:42;10.35;;;6.18;;
40907;SDS011;51055;59.436;24.778;2023-02-15T12:11:25;10.35;;;4.82;;
40907;SDS011;51055;59.436;24.778;2023-02-15T12:13:31;8.15;;;4.70;;
40907;SDS011;51055;59.436;24.778;2023-02-15T12:15:58;7.78;;;4.20;;
40907;SDS011;51055;59.436;24.778;2023-02-15T12:18:36;8.18;;;4.45;;
40907;SDS011;51055;59.436;24.778;2023-02-15T12:21:11;7.57;;;4.28;;
40907;SDS011;51055;59.436;24.778;2023-02-15T12:23:46;7.50;;;4.32;;
40907;SDS011;51055;59.436;24.778;2023-02-15T12:26:15;7.78;;;4.50;;
40907;SDS011;51055;59.436;24.778;2023-02-15T12:28:50;9.05;;;4.97;;
40907;SDS011;51055;59.436;24.778;2023-02-15T12:31:20;9.93;;;4.65;;
40907;SDS011;51055;59.436;24.778;2023-02-15T12:33:48;9.25;;;4.70;;
40907;SDS011;51055;59.436;24.778;2023-02-15T12:39:05;8.38;;;4.45;;
40907;SDS011;51055;59.436;24.778;2023-02-15T12:41:33;7.80;;;4.75;;
40907;SDS011;51055;59.436;24.778;2023-02-15T12:44:05;6.93;;;3.97;;
40907;SDS011;51055;59.436;24.778;2023-02-15T12:46:33;7.75;;;4.43;;
40907;SDS011;51055;59.436;24.778;2023-02-15T12:54:37;7.00;;;4.07;;
40907;SDS011;51055;59.436;24.778;2023-02-15T13:00:06;7.95;;;4.35;;
40907;SDS011;51055;59.436;24.778;2023-02-15T13:07:47;7.45;;;4.38;;
40907;SDS011;51055;59.436;24.778;2023-02-15T13:10:22;7.30;;;4.22;;
40907;SDS011;51055;59.436;24.778;2023-02-15T13:12:51;8.20;;;4.60;;
40907;SDS011;51055;59.436;24.778;2023-02-15T13:15:25;7.60;;;4.07;;
40907;SDS011;51055;59.436;24.778;2023-02-15T13:17:54;8.82;;;4.47;;
40907;SDS011;51055;59.436;24.778;2023-02-15T13:22:56;8.02;;;4.38;;
40907;SDS011;51055;59.436;24.778;2023-02-15T13:25:25;9.80;;;5.60;;
40907;SDS011;51055;59.436;24.778;2023-02-15T13:28:00;9.35;;;5.00;;
40907;SDS011;51055;59.436;24.778;2023-02-15T13:32:59;6.85;;;4.13;;
40907;SDS011;51055;59.436;24.778;2023-02-15T13:37:58;10.05;;;3.72;;
40907;SDS011;51055;59.436;24.778;2023-02-15T13:40:32;7.85;;;3.83;;
40907;SDS011;51055;59.436;24.778;2023-02-15T13:50:37;7.35;;;3.72;;
40907;SDS011;51055;59.436;24.778;2023-02-15T14:00:48;8.77;;;4.68;;
40907;SDS011;51055;59.436;24.778;2023-02-15T14:03:36;8.82;;;4.53;;
40907;SDS011;51055;59.436;24.778;2023-02-15T14:06:09;8.45;;;4.45;;
40907;SDS011;51055;59.436;24.778;2023-02-15T14:24:16;7.07;;;4.20;;
40907;SDS011;51055;59.436;24.778;2023-02-15T14:26:49;7.40;;;4.43;;
40907;SDS011;51055;59.436;24.778;2023-02-15T14:29:38;6.53;;;3.35;;
40907;SDS011;51055;59.436;24.778;2023-02-15T14:32:09;5.38;;;2.90;;
40907;SDS011;51055;59.436;24.778;2023-02-15T14:34:42;7.18;;;2.95;;
40907;SDS011;51055;59.436;24.778;2023-02-15T14:37:11;5.07;;;2.50;;
40907;SDS011;51055;59.436;24.778;2023-02-15T14:42:30;6.13;;;2.92;;
40907;SDS011;51055;59.436;24.778;2023-02-15T14:45:04;6.13;;;3.33;;
40907;SDS011;51055;59.436;24.778;2023-02-15T14:47:34;7.10;;;3.40;;
40907;SDS011;51055;59.436;24.778;2023-02-15T14:55:35;5.13;;;2.75;;
40907;SDS011;51055;59.436;24.778;2023-02-15T14:58:09;6.13;;;2.78;;
40907;SDS011;51055;59.436;24.778;2023-02-15T15:00:38;7.13;;;3.50;;
40907;SDS011;51055;59.436;24.778;2023-02-15T15:03:41;5.32;;;2.95;;
40907;SDS011;51055;59.436;24.778;2023-02-15T15:06:00;5.85;;;2.90;;
40907;SDS011;51055;59.436;24.778;2023-02-15T15:08:33;6.57;;;3.30;;
40907;SDS011;51055;59.436;24.778;2023-02-15T15:14:09;4.78;;;2.22;;
40907;SDS011;51055;59.436;24.778;2023-02-15T15:19:08;4.40;;;2.47;;
40907;SDS011;51055;59.436;24.778;2023-02-15T15:29:47;5.40;;;2.75;;
40907;SDS011;51055;59.436;24.778;2023-02-15T15:32:14;5.47;;;2.80;;
40907;SDS011;51055;59.436;24.778;2023-02-15T15:45:15;5.70;;;3.30;;
40907;SDS011;51055;59.436;24.778;2023-02-15T15:50:34;5.95;;;3.55;;
40907;SDS011;51055;59.436;24.778;2023-02-15T15:53:02;7.38;;;3.85;;
40907;SDS011;51055;59.436;24.778;2023-02-15T15:55:30;4.13;;;2.40;;
40907;SDS011;51055;59.436;24.778;2023-02-15T15:58:00;6.72;;;4.22;;
40907;SDS011;51055;59.436;24.778;2023-02-15T16:01:03;6.40;;;3.70;;
40907;SDS011;51055;59.436;24.778;2023-02-15T16:03:23;7.25;;;4.70;;
40907;SDS011;51055;59.436;24.778;2023-02-15T16:05:51;5.97;;;3.88;;
40907;SDS011;51055;59.436;24.778;2023-02-15T16:08:29;8.90;;;4.90;;
40907;SDS011;51055;59.436;24.778;2023-02-15T16:10:57;7.43;;;3.88;;
40907;SDS011;51055;59.436;24.778;2023-02-15T16:13:25;7.40;;;3.97;;
40907;SDS011;51055;59.436;24.778;2023-02-15T16:15:53;6.93;;;3.88;;
40907;SDS011;51055;59.436;24.778;2023-02-15T16:18:25;6.80;;;3.70;;
40907;SDS011;51055;59.436;24.778;2023-02-15T16:20:55;6.63;;;3.80;;
40907;SDS011;51055;59.436;24.778;2023-02-15T16:28:49;8.27;;;4.75;;
40907;SDS011;51055;59.436;24.778;2023-02-15T16:31:17;7.40;;;3.67;;
40907;SDS011;51055;59.436;24.778;2023-02-15T16:33:45;13.55;;;7.78;;
40907;SDS011;51055;59.436;24.778;2023-02-15T16:36:25;12.25;;;6.53;;
40907;SDS011;51055;59.436;24.778;2023-02-15T16:41:29;9.80;;;5.72;;
40907;SDS011;51055;59.436;24.778;2023-02-15T16:43:58;6.65;;;2.90;;
40907;SDS011;51055;59.436;24.778;2023-02-15T16:46:29;4.25;;;2.10;;
40907;SDS011;51055;59.436;24.778;2023-02-15T16:49:03;4.53;;;2.15;;
40907;SDS011;51055;59.436;24.778;2023-02-15T16:51:32;7.68;;;2.67;;
40907;SDS011;51055;59.436;24.778;2023-02-15T16:54:03;4.05;;;1.85;;
40907;SDS011;51055;59.436;24.778;2023-02-15T16:56:35;2.80;;;1.48;;
40907;SDS011;51055;59.436;24.778;2023-02-15T16:59:03;3.55;;;1.90;;
40907;SDS011;51055;59.436;24.778;2023-02-15T17:01:31;3.25;;;1.70;;
40907;SDS011;51055;59.436;24.778;2023-02-15T17:09:33;2.92;;;1.70;;
40907;SDS011;51055;59.436;24.778;2023-02-15T17:12:02;3.33;;;1.25;;
40907;SDS011;51055;59.436;24.778;2023-02-15T17:14:30;3.50;;;1.73;;
40907;SDS011;51055;59.436;24.778;2023-02-15T17:16:59;2.60;;;1.25;;
40907;SDS011;51055;59.436;24.778;2023-02-15T17:19:32;3.33;;;1.50;;
40907;SDS011;51055;59.436;24.778;2023-02-15T17:22:01;2.97;;;1.20;;
40907;SDS011;51055;59.436;24.778;2023-02-15T17:26:59;3.80;;;1.70;;
40907;SDS011;51055;59.436;24.778;2023-02-15T17:29:40;3.20;;;1.60;;
40907;SDS011;51055;59.436;24.778;2023-02-15T17:32:20;3.85;;;1.52;;
40907;SDS011;51055;59.436;24.778;2023-02-15T17:37:42;4.57;;;2.50;;
40907;SDS011;51055;59.436;24.778;2023-02-15T17:42:46;4.40;;;2.22;;
40907;SDS011;51055;59.436;24.778;2023-02-15T17:45:14;4.43;;;2.00;;
40907;SDS011;51055;59.436;24.778;2023-02-15T17:47:41;4.68;;;1.95;;
40907;SDS011;51055;59.436;24.778;2023-02-15T17:50:22;4.07;;;1.80;;
40907;SDS011;51055;59.436;24.778;2023-02-15T17:52:50;4.68;;;2.20;;
40907;SDS011;51055;59.436;24.778;2023-02-15T17:55:19;5.90;;;2.60;;
40907;SDS011;51055;59.436;24.778;2023-02-15T17:58:06;7.97;;;4.60;;
40907;SDS011;51055;59.436;24.778;2023-02-15T18:00:36;6.13;;;3.50;;
40907;SDS011;51055;59.436;24.778;2023-02-15T18:03:23;4.40;;;2.28;;
40907;SDS011;51055;59.436;24.778;2023-02-15T18:06:09;4.28;;;2.05;;
40907;SDS011;51055;59.436;24.778;2023-02-15T18:08:58;3.55;;;1.83;;
40907;SDS011;51055;59.436;24.778;2023-02-15T18:11:45;6.03;;;3.17;;
40907;SDS011;51055;59.436;24.778;2023-02-15T18:14:15;6.07;;;2.72;;
40907;SDS011;51055;59.436;24.778;2023-02-15T18:16:43;6.15;;;3.70;;
40907;SDS011;51055;59.436;24.778;2023-02-15T18:19:13;17.30;;;9.05;;